Time;durP1;ratioP1;P1;durP2;ratioP2;P2;SDS_P1;SDS_P2;PMS_P1;PMS_P2;Temp;Humidity;BMP_temperature;BMP_pressure;BME280_temperature;BME280_humidity;BME280_pressure;Samples;Min_cycle;Max_cycle;Signal;HPM_P1;HPM_P2
2024/04/10 00:00:13;;;;;;;;;;;;;;;;;;363915;27;1837;-82
2024/04/10 00:00:23;;;;;;;;;;;;;;;;;;361698;27;1020;-82
2024/04/10 00:00:33;;;;;;;;;;;;;;;;;;361682;27;1298;-82
2024/04/10 00:00:43;;;;;;;;;;;;;;;;;;361631;27;1194;-82
2024/04/10 00:00:54;;;;;;;;;;;;;;;;;;361707;27;1369;-82
2024/04/10 00:01:05;;;;;;;;;;;;;;;;;;361639;27;1333;-82
2024/04/10 00:01:16;;;;;;;;;;;;;;;;;;363998;27;1277;-82
2024/04/10 00:01:26;;;;;;;;;;;;;;;;;;363955;27;1039;-82
2024/04/10 00:01:36;;;;;;;;;;;;;;;;;;364150;27;925;-82
2024/04/10 00:01:48;;;;;;;;;;;;;;;;;;364003;27;1055;-82
2024/04/10 00:01:58;;;;;;;;;;;;;;;;;;364117;27;926;-82
2024/04/10 00:02:09;;;;;;;;;;;;;;;;;;364017;27;997;-82
2024/04/10 00:02:19;;;;;;;;;;;;;;;;;;365592;27;1590;-82
2024/04/10 00:02:30;;;;;;;;;;;;;;;;;;366319;27;996;-82
2024/04/10 00:02:40;;;;;;;;;;;;;;;;;;366885;26;992;-82
2024/04/10 00:02:50;;;;;;;;;;;;;;;;;;370187;26;1027;-82
2024/04/10 00:03:05;;;;;;;;;;;;;;;;;;371224;26;1004;-82
2024/04/10 00:03:16;;;;;;;;;;;;;;;;;;371246;26;931;-82
2024/04/10 00:03:26;;;;;;;;;;;;;;;;;;368747;26;1015;-82
2024/04/10 00:03:37;;;;;;;;;;;;;;;;;;366350;27;1354;-82
2024/04/10 00:03:47;;;;;;;;;;;;;;;;;;366446;26;1043;-82
2024/04/10 00:03:57;;;;;;;;;;;;;;;;;;366397;27;878;-82
2024/04/10 00:04:07;;;;;;;;;;;;;;;;;;368833;26;1059;-82
2024/04/10 00:04:17;;;;;;;;;;;;;;;;;;367271;26;1420;-82
2024/04/10 00:04:28;;;;;;;;;;;;;;;;;;368779;26;1032;-82
2024/04/10 00:04:38;;;;;;;;;;;;;;;;;;366353;27;1043;-82
2024/04/10 00:04:48;;;;;;;;;;;;;;;;;;366039;27;1596;-82
2024/04/10 00:04:58;;;;;;;;;;;;;;;;;;366361;27;992;-82
2024/04/10 00:05:09;;;;;;;;;;;;;;;;;;366407;27;1354;-82
2024/04/10 00:05:19;;;;;;;;;;;;;;;;;;363792;27;1317;-82
2024/04/10 00:05:29;;;;;;;;;;;;;;;;;;364037;27;1004;-82
2024/04/10 00:05:39;;;;;;;;;;;;;;;;;;361620;27;960;-82
2024/04/10 00:05:59;;;;;;;;;;;;;;;;;;366325;27;1262;-82
2024/04/10 00:06:09;;;;;;;;;;;;;;;;;;366445;27;1005;-82
2024/04/10 00:06:20;;;;;;;;;;;;;;;;;;367639;26;1904;-82
2024/04/10 00:06:30;;;;;;;;;;;;;;;;;;368829;26;1043;-82
2024/04/10 00:06:40;;;;;;;;;;;;;;;;;;368528;26;1404;-82
2024/04/10 00:06:50;;;;;;;;;;;;;;;;;;368882;26;961;-82
2024/04/10 00:07:00;;;;;;;;;;;;;;;;;;366470;27;838;-82
2024/04/10 00:07:11;;;;;;;;;;;;;;;;;;366368;27;1246;-82
2024/04/10 00:07:22;;;;;;;;;;;;;;;;;;368747;26;1063;-82
2024/04/10 00:07:32;;;;;;;;;;;;;;;;;;366392;27;1035;-82
2024/04/10 00:07:42;;;;;;;;;;;;;;;;;;368688;26;1047;-82
2024/04/10 00:07:52;;;;;;;;;;;;;;;;;;368768;26;1016;-82
2024/04/10 00:08:03;;;;;;;;;;;;;;;;;;366263;27;1274;-82
2024/04/10 00:08:14;;;;;;;;;;;;;;;;;;364036;27;997;-82
2024/04/10 00:08:25;;;;;;;;;;;;;;;;;;366345;27;1344;-82
2024/04/10 00:08:36;;;;;;;;;;;;;;;;;;364070;27;1032;-82
2024/04/10 00:08:46;;;;;;;;;;;;;;;;;;364011;27;1001;-82
2024/04/10 00:08:56;;;;;;;;;;;;;;;;;;366352;27;1226;-82
2024/04/10 00:09:07;;;;;;;;;;;;;;;;;;366324;27;1166;-82
2024/04/10 00:09:17;;;;;;;;;;;;;;;;;;368882;26;1051;-82
2024/04/10 00:09:27;;;;;;;;;;;;;;;;;;366401;27;984;-82
2024/04/10 00:09:37;;;;;;;;;;;;;;;;;;368816;26;1027;-82
2024/04/10 00:09:48;;;;;;;;;;;;;;;;;;373532;26;1318;-82
2024/04/10 00:09:58;;;;;;;;;;;;;;;;;;373751;26;1024;-82
2024/04/10 00:10:08;;;;;;;;;;;;;;;;;;371122;26;1738;-82
2024/04/10 00:10:18;;;;;;;;;;;;;;;;;;368772;26;1282;-82
2024/04/10 00:10:29;;;;;;;;;;;;;;;;;;361584;27;1384;-82
2024/04/10 00:10:39;;;;;;;;;;;;;;;;;;361863;27;763;-82
2024/04/10 00:10:49;;;;;;;;;;;;;;;;;;364205;27;1001;-82
2024/04/10 00:11:03;;;;;;;;;;;;;;;;;;364080;27;1133;-82
2024/04/10 00:11:13;;;;;;;;;;;;;;;;;;364090;27;1004;-82
2024/04/10 00:11:25;;;;;;;;;;;;;;;;;;364006;27;1048;-82
2024/04/10 00:11:35;;;;;;;;;;;;;;;;;;368665;26;1467;-82
2024/04/10 00:11:45;;;;;;;;;;;;;;;;;;368801;26;1054;-82
2024/04/10 00:11:55;;;;;;;;;;;;;;;;;;366328;26;1200;-82
2024/04/10 00:12:06;;;;;;;;;;;;;;;;;;366494;27;1004;-82
2024/04/10 00:12:16;;;;;;;;;;;;;;;;;;363999;26;1162;-82
2024/04/10 00:12:26;;;;;;;;;;;;;;;;;;362645;27;1299;-82
2024/04/10 00:12:36;;;;;;;;;;;;;;;;;;366331;27;1215;-82
2024/04/10 00:12:47;;;;;;;;;;;;;;;;;;366481;27;1044;-82
2024/04/10 00:12:57;;;;;;;;;;;;;;;;;;368662;26;1411;-82
2024/04/10 00:13:07;;;;;;;;;;;;;;;;;;368884;26;924;-82
2024/04/10 00:13:17;;;;;;;;;;;;;;;;;;368683;26;1303;-82
2024/04/10 00:13:28;;;;;;;;;;;;;;;;;;368742;26;1108;-82
2024/04/10 00:13:38;;;;;;;;;;;;;;;;;;366383;27;1063;-82
2024/04/10 00:13:48;;;;;;;;;;;;;;;;;;366366;26;1004;-82
2024/04/10 00:13:58;;;;;;;;;;;;;;;;;;366175;27;1211;-82
2024/04/10 00:14:09;;;;;;;;;;;;;;;;;;366320;27;1334;-82
2024/04/10 00:14:19;;;;;;;;;;;;;;;;;;366408;27;996;-82
2024/04/10 00:14:29;;;;;;;;;;;;;;;;;;366477;27;924;-83
2024/04/10 00:14:39;;;;;;;;;;;;;;;;;;366125;27;1594;-83
2024/04/10 00:14:49;;;;;;;;;;;;;;;;;;366379;27;1205;-82
2024/04/10 00:15:00;;;;;;;;;;;;;;;;;;366319;27;957;-82
2024/04/10 00:15:10;;;;;;;;;;;;;;;;;;364040;27;1207;-82
2024/04/10 00:15:20;;;;;;;;;;;;;;;;;;368658;26;1281;-82
2024/04/10 00:15:30;;;;;;;;;;;;;;;;;;368825;26;1577;-82
2024/04/10 00:15:41;;;;;;;;;;;;;;;;;;369252;26;1504;-83
2024/04/10 00:16:00;;;;;;;;;;;;;;;;;;371045;26;1558;-83
2024/04/10 00:16:11;;;;;;;;;;;;;;;;;;371141;26;1114;-83
2024/04/10 00:16:21;;;;;;;;;;;;;;;;;;368766;26;1257;-83
2024/04/10 00:16:32;;;;;;;;;;;;;;;;;;368852;26;928;-83
2024/04/10 00:16:42;;;;;;;;;;;;;;;;;;368899;26;1000;-83
2024/04/10 00:16:52;;;;;;;;;;;;;;;;;;368821;26;1004;-83
2024/04/10 00:17:02;;;;;;;;;;;;;;;;;;370177;26;1448;-83
2024/04/10 00:17:13;;;;;;;;;;;;;;;;;;371225;26;1076;-83
2024/04/10 00:17:27;;;;;;;;;;;;;;;;;;366304;27;1216;-83
2024/04/10 00:17:37;;;;;;;;;;;;;;;;;;368854;26;858;-83
2024/04/10 00:17:47;;;;;;;;;;;;;;;;;;366365;27;1127;-83
2024/04/10 00:17:59;;;;;;;;;;;;;;;;;;366417;27;988;-83
2024/04/10 00:18:09;;;;;;;;;;;;;;;;;;366379;27;1056;-83
2024/04/10 00:18:19;;;;;;;;;;;;;;;;;;366457;27;1025;-83
2024/04/10 00:18:30;;;;;;;;;;;;;;;;;;366355;27;1207;-83
2024/04/10 00:18:40;;;;;;;;;;;;;;;;;;366541;27;798;-83
2024/04/10 00:18:51;;;;;;;;;;;;;;;;;;366489;27;956;-82
2024/04/10 00:19:01;;;;;;;;;;;;;;;;;;366366;27;1425;-82
2024/04/10 00:19:11;;;;;;;;;;;;;;;;;;364007;27;1376;-82
2024/04/10 00:19:22;;;;;;;;;;;;;;;;;;364141;27;775;-82
2024/04/10 00:19:32;;;;;;;;;;;;;;;;;;366059;27;1816;-83
2024/04/10 00:19:42;;;;;;;;;;;;;;;;;;369607;26;1000;-83
2024/04/10 00:19:52;;;;;;;;;;;;;;;;;;368644;26;1413;-83
2024/04/10 00:20:03;;;;;;;;;;;;;;;;;;368632;26;1849;-83
2024/04/10 00:20:13;;;;;;;;;;;;;;;;;;368885;26;932;-82
2024/04/10 00:20:24;;;;;;;;;;;;;;;;;;368913;26;893;-82
2024/04/10 00:20:34;;;;;;;;;;;;;;;;;;369624;26;1415;-82
2024/04/10 00:20:47;;;;;;;;;;;;;;;;;;371176;26;1050;-82
2024/04/10 00:20:57;;;;;;;;;;;;;;;;;;370215;26;1873;-82
2024/04/10 00:21:08;;;;;;;;;;;;;;;;;;371180;26;1245;-82
2024/04/10 00:21:18;;;;;;;;;;;;;;;;;;371167;26;957;-82
2024/04/10 00:21:32;;;;;;;;;;;;;;;;;;368856;26;1063;-82
2024/04/10 00:21:43;;;;;;;;;;;;;;;;;;363969;26;1092;-82
2024/04/10 00:21:56;;;;;;;;;;;;;;;;;;364174;27;861;-82
2024/04/10 00:22:06;;;;;;;;;;;;;;;;;;366264;26;1190;-82
2024/04/10 00:22:16;;;;;;;;;;;;;;;;;;368654;26;1398;-82
2024/04/10 00:22:26;;;;;;;;;;;;;;;;;;371143;26;1424;-82
2024/04/10 00:22:37;;;;;;;;;;;;;;;;;;371240;26;988;-82
2024/04/10 00:22:47;;;;;;;;;;;;;;;;;;371159;26;1035;-82
2024/04/10 00:22:57;;;;;;;;;;;;;;;;;;368896;26;1068;-82
2024/04/10 00:23:08;;;;;;;;;;;;;;;;;;366443;27;825;-82
2024/04/10 00:23:20;;;;;;;;;;;;;;;;;;364051;27;1258;-82
2024/04/10 00:23:31;;;;;;;;;;;;;;;;;;361577;27;1272;-82
2024/04/10 00:23:41;;;;;;;;;;;;;;;;;;363967;27;1314;-82
2024/04/10 00:23:51;;;;;;;;;;;;;;;;;;368114;26;1350;-82
2024/04/10 00:24:01;;;;;;;;;;;;;;;;;;368851;26;924;-82
2024/04/10 00:24:12;;;;;;;;;;;;;;;;;;368871;26;916;-82
2024/04/10 00:24:22;;;;;;;;;;;;;;;;;;368800;26;830;-81
2024/04/10 00:24:32;;;;;;;;;;;;;;;;;;368792;26;1550;-82
2024/04/10 00:24:44;;;;;;;;;;;;;;;;;;366396;26;988;-82
2024/04/10 00:24:54;;;;;;;;;;;;;;;;;;366402;27;1563;-82
2024/04/10 00:25:04;;;;;;;;;;;;;;;;;;366372;27;997;-82
2024/04/10 00:25:14;;;;;;;;;;;;;;;;;;366425;27;1166;-82
2024/04/10 00:25:25;;;;;;;;;;;;;;;;;;364251;27;1416;-82
2024/04/10 00:25:35;;;;;;;;;;;;;;;;;;364093;27;976;-82
2024/04/10 00:25:52;;;;;;;;;;;;;;;;;;364014;27;1349;-82
2024/04/10 00:26:03;;;;;;;;;;;;;;;;;;363947;27;1231;-82
2024/04/10 00:26:14;;;;;;;;;;;;;;;;;;364053;27;1072;-82
2024/04/10 00:26:24;;;;;;;;;;;;;;;;;;364055;27;1396;-82
2024/04/10 00:26:35;;;;;;;;;;;;;;;;;;366472;27;810;-82
2024/04/10 00:26:51;;;;;;;;;;;;;;;;;;366311;27;1108;-82
2024/04/10 00:27:01;;;;;;;;;;;;;;;;;;366029;27;1437;-82
2024/04/10 00:27:13;;;;;;;;;;;;;;;;;;368855;26;1036;-82
2024/04/10 00:27:24;;;;;;;;;;;;;;;;;;365457;27;1449;-82
2024/04/10 00:27:35;;;;;;;;;;;;;;;;;;361720;27;1056;-82
2024/04/10 00:27:45;;;;;;;;;;;;;;;;;;364092;27;1032;-82
2024/04/10 00:27:57;;;;;;;;;;;;;;;;;;364209;27;787;-82
2024/04/10 00:28:07;;;;;;;;;;;;;;;;;;366331;27;1141;-82
2024/04/10 00:28:17;;;;;;;;;;;;;;;;;;366368;27;1043;-82
2024/04/10 00:28:28;;;;;;;;;;;;;;;;;;366494;27;917;-82
2024/04/10 00:28:38;;;;;;;;;;;;;;;;;;365751;26;1048;-82
2024/04/10 00:28:49;;;;;;;;;;;;;;;;;;371191;26;1227;-82
2024/04/10 00:28:59;;;;;;;;;;;;;;;;;;371265;26;916;-82
2024/04/10 00:29:09;;;;;;;;;;;;;;;;;;371198;26;1051;-82
2024/04/10 00:29:19;;;;;;;;;;;;;;;;;;366365;26;1272;-82
2024/04/10 00:29:31;;;;;;;;;;;;;;;;;;366402;27;948;-82
2024/04/10 00:29:42;;;;;;;;;;;;;;;;;;368636;26;1334;-82
2024/04/10 00:29:52;;;;;;;;;;;;;;;;;;366484;27;912;-82
2024/04/10 00:30:02;;;;;;;;;;;;;;;;;;366391;27;1350;-82
2024/04/10 00:30:12;;;;;;;;;;;;;;;;;;368765;26;913;-82
2024/04/10 00:30:22;;;;;;;;;;;;;;;;;;368739;26;1183;-82
2024/04/10 00:30:34;;;;;;;;;;;;;;;;;;368805;26;1519;-82
2024/04/10 00:30:45;;;;;;;;;;;;;;;;;;368784;26;842;-82
2024/04/10 00:30:55;;;;;;;;;;;;;;;;;;368820;26;1051;-82
2024/04/10 00:31:05;;;;;;;;;;;;;;;;;;368878;26;1055;-82
2024/04/10 00:31:15;;;;;;;;;;;;;;;;;;370112;26;1636;-82
2024/04/10 00:31:26;;;;;;;;;;;;;;;;;;371214;26;1003;-82
2024/04/10 00:31:36;;;;;;;;;;;;;;;;;;366351;27;1226;-82
2024/04/10 00:31:50;;;;;;;;;;;;;;;;;;371268;26;1260;-82
2024/04/10 00:32:01;;;;;;;;;;;;;;;;;;368904;26;1036;-82
2024/04/10 00:32:11;;;;;;;;;;;;;;;;;;368534;26;1439;-82
2024/04/10 00:32:21;;;;;;;;;;;;;;;;;;366575;27;925;-82
2024/04/10 00:32:31;;;;;;;;;;;;;;;;;;365999;27;1428;-83
2024/04/10 00:32:45;;;;;;;;;;;;;;;;;;364137;27;1231;-83
2024/04/10 00:32:55;;;;;;;;;;;;;;;;;;364049;27;1228;-82
2024/04/10 00:33:05;;;;;;;;;;;;;;;;;;364108;27;1056;-82
2024/04/10 00:33:16;;;;;;;;;;;;;;;;;;364003;27;1437;-82
2024/04/10 00:33:26;;;;;;;;;;;;;;;;;;364086;27;989;-82
2024/04/10 00:33:38;;;;;;;;;;;;;;;;;;366020;27;1116;-82
2024/04/10 00:33:48;;;;;;;;;;;;;;;;;;364036;27;1184;-82
2024/04/10 00:33:59;;;;;;;;;;;;;;;;;;366328;27;1017;-82
2024/04/10 00:34:09;;;;;;;;;;;;;;;;;;366130;27;1513;-82
2024/04/10 00:34:20;;;;;;;;;;;;;;;;;;365829;27;1055;-82
2024/04/10 00:34:30;;;;;;;;;;;;;;;;;;366391;27;996;-82
2024/04/10 00:34:40;;;;;;;;;;;;;;;;;;368084;26;786;-82
2024/04/10 00:34:51;;;;;;;;;;;;;;;;;;368792;26;1008;-82
2024/04/10 00:35:01;;;;;;;;;;;;;;;;;;368804;26;1202;-82
2024/04/10 00:35:11;;;;;;;;;;;;;;;;;;369724;26;1283;-82
2024/04/10 00:35:21;;;;;;;;;;;;;;;;;;371043;26;1302;-82
2024/04/10 00:35:31;;;;;;;;;;;;;;;;;;370940;26;1623;-82
2024/04/10 00:35:42;;;;;;;;;;;;;;;;;;370913;26;2129;-82
2024/04/10 00:35:58;;;;;;;;;;;;;;;;;;366328;26;1264;-82
2024/04/10 00:36:10;;;;;;;;;;;;;;;;;;366451;27;992;-82
2024/04/10 00:36:21;;;;;;;;;;;;;;;;;;366428;27;818;-83
2024/04/10 00:36:31;;;;;;;;;;;;;;;;;;366476;27;1025;-83
2024/04/10 00:36:41;;;;;;;;;;;;;;;;;;366502;27;748;-82
2024/04/10 00:36:51;;;;;;;;;;;;;;;;;;366478;26;1285;-82
2024/04/10 00:37:02;;;;;;;;;;;;;;;;;;371071;26;1507;-82
2024/04/10 00:37:12;;;;;;;;;;;;;;;;;;366379;27;1315;-82
2024/04/10 00:37:22;;;;;;;;;;;;;;;;;;368805;26;1012;-82
2024/04/10 00:37:33;;;;;;;;;;;;;;;;;;366641;26;1558;-82
2024/04/10 00:37:43;;;;;;;;;;;;;;;;;;368303;26;1820;-82
2024/04/10 00:37:53;;;;;;;;;;;;;;;;;;366420;27;826;-82
2024/04/10 00:38:03;;;;;;;;;;;;;;;;;;366396;27;1118;-82
2024/04/10 00:38:14;;;;;;;;;;;;;;;;;;366217;27;1188;-82
2024/04/10 00:38:27;;;;;;;;;;;;;;;;;;366225;26;1271;-82
2024/04/10 00:38:38;;;;;;;;;;;;;;;;;;366425;27;1183;-82
2024/04/10 00:38:48;;;;;;;;;;;;;;;;;;366442;27;1045;-82
2024/04/10 00:38:58;;;;;;;;;;;;;;;;;;366302;27;1192;-82
2024/04/10 00:39:09;;;;;;;;;;;;;;;;;;371067;26;1280;-82
2024/04/10 00:39:19;;;;;;;;;;;;;;;;;;371291;26;1028;-82
2024/04/10 00:39:29;;;;;;;;;;;;;;;;;;371383;26;782;-82
2024/04/10 00:39:39;;;;;;;;;;;;;;;;;;373667;26;1260;-82
2024/04/10 00:39:49;;;;;;;;;;;;;;;;;;368721;26;1376;-83
2024/04/10 00:40:00;;;;;;;;;;;;;;;;;;368459;26;1408;-82
2024/04/10 00:40:10;;;;;;;;;;;;;;;;;;366483;27;1833;-82
2024/04/10 00:40:20;;;;;;;;;;;;;;;;;;366454;27;1027;-83
2024/04/10 00:40:30;;;;;;;;;;;;;;;;;;366507;27;992;-82
2024/04/10 00:40:40;;;;;;;;;;;;;;;;;;366418;27;971;-82
2024/04/10 00:40:55;;;;;;;;;;;;;;;;;;363980;27;1315;-83
2024/04/10 00:41:05;;;;;;;;;;;;;;;;;;364028;27;984;-82
2024/04/10 00:41:16;;;;;;;;;;;;;;;;;;366331;27;968;-82
2024/04/10 00:41:26;;;;;;;;;;;;;;;;;;366357;27;1480;-82
2024/04/10 00:41:38;;;;;;;;;;;;;;;;;;365867;27;1658;-82
2024/04/10 00:41:48;;;;;;;;;;;;;;;;;;368802;26;1258;-82
2024/04/10 00:41:58;;;;;;;;;;;;;;;;;;366449;27;1001;-82
2024/04/10 00:42:08;;;;;;;;;;;;;;;;;;366414;27;1630;-82
2024/04/10 00:42:19;;;;;;;;;;;;;;;;;;368870;26;798;-82
2024/04/10 00:42:29;;;;;;;;;;;;;;;;;;366326;27;1231;-82
2024/04/10 00:42:39;;;;;;;;;;;;;;;;;;366370;27;1514;-82
2024/04/10 00:42:49;;;;;;;;;;;;;;;;;;366285;27;1270;-82
2024/04/10 00:43:02;;;;;;;;;;;;;;;;;;366364;27;1275;-82
2024/04/10 00:43:13;;;;;;;;;;;;;;;;;;368752;26;1331;-82
2024/04/10 00:43:24;;;;;;;;;;;;;;;;;;366366;27;1020;-82
2024/04/10 00:43:34;;;;;;;;;;;;;;;;;;366469;27;759;-82
2024/04/10 00:43:44;;;;;;;;;;;;;;;;;;366494;27;988;-82
2024/04/10 00:43:55;;;;;;;;;;;;;;;;;;366425;27;1052;-82
2024/04/10 00:44:05;;;;;;;;;;;;;;;;;;366444;27;1000;-82
2024/04/10 00:44:15;;;;;;;;;;;;;;;;;;366429;27;842;-82
2024/04/10 00:44:25;;;;;;;;;;;;;;;;;;366424;27;1056;-82
2024/04/10 00:44:45;;;;;;;;;;;;;;;;;;366440;27;1000;-82
2024/04/10 00:44:56;;;;;;;;;;;;;;;;;;368676;26;1182;-82
2024/04/10 00:45:07;;;;;;;;;;;;;;;;;;364626;27;1410;-82
2024/04/10 00:45:17;;;;;;;;;;;;;;;;;;363934;27;1160;-82
2024/04/10 00:45:27;;;;;;;;;;;;;;;;;;365810;27;1220;-82
2024/04/10 00:45:38;;;;;;;;;;;;;;;;;;366322;27;1303;-82
2024/04/10 00:45:59;;;;;;;;;;;;;;;;;;366275;27;1184;-82
2024/04/10 00:46:15;;;;;;;;;;;;;;;;;;366213;27;968;-82
2024/04/10 00:46:26;;;;;;;;;;;;;;;;;;366436;27;873;-82
2024/04/10 00:46:37;;;;;;;;;;;;;;;;;;365628;26;1470;-82
2024/04/10 00:46:47;;;;;;;;;;;;;;;;;;364099;27;1028;-82
2024/04/10 00:46:58;;;;;;;;;;;;;;;;;;364019;27;985;-82
2024/04/10 00:47:08;;;;;;;;;;;;;;;;;;364168;27;1044;-83
2024/04/10 00:47:18;;;;;;;;;;;;;;;;;;366355;27;1181;-82
2024/04/10 00:47:29;;;;;;;;;;;;;;;;;;364203;27;1048;-82
2024/04/10 00:47:39;;;;;;;;;;;;;;;;;;364248;27;854;-83
2024/04/10 00:47:49;;;;;;;;;;;;;;;;;;364173;27;1033;-83
2024/04/10 00:47:59;;;;;;;;;;;;;;;;;;364083;27;961;-82
2024/04/10 00:48:10;;;;;;;;;;;;;;;;;;367384;26;1418;-83
2024/04/10 00:48:20;;;;;;;;;;;;;;;;;;366440;27;1028;-83
2024/04/10 00:48:30;;;;;;;;;;;;;;;;;;368970;26;840;-83
2024/04/10 00:48:41;;;;;;;;;;;;;;;;;;366433;27;1656;-82
2024/04/10 00:48:52;;;;;;;;;;;;;;;;;;366498;27;795;-83
2024/04/10 00:49:02;;;;;;;;;;;;;;;;;;366373;27;841;-82
2024/04/10 00:49:13;;;;;;;;;;;;;;;;;;366332;27;1251;-82
2024/04/10 00:49:23;;;;;;;;;;;;;;;;;;366361;27;803;-82
2024/04/10 00:49:33;;;;;;;;;;;;;;;;;;364017;27;1274;-82
2024/04/10 00:49:44;;;;;;;;;;;;;;;;;;361797;27;1321;-82
2024/04/10 00:49:55;;;;;;;;;;;;;;;;;;364117;27;1060;-82
2024/04/10 00:50:06;;;;;;;;;;;;;;;;;;364024;27;1052;-83
2024/04/10 00:50:16;;;;;;;;;;;;;;;;;;361691;27;1215;-83
2024/04/10 00:50:26;;;;;;;;;;;;;;;;;;361648;27;1880;-82
2024/04/10 00:50:36;;;;;;;;;;;;;;;;;;361815;27;993;-82
2024/04/10 00:50:47;;;;;;;;;;;;;;;;;;361687;27;902;-83
2024/04/10 00:50:57;;;;;;;;;;;;;;;;;;364172;27;1281;-83
2024/04/10 00:51:08;;;;;;;;;;;;;;;;;;364213;27;1040;-83
2024/04/10 00:51:19;;;;;;;;;;;;;;;;;;362031;27;1087;-83
2024/04/10 00:51:29;;;;;;;;;;;;;;;;;;363935;27;1033;-83
2024/04/10 00:51:39;;;;;;;;;;;;;;;;;;366481;27;1552;-83
2024/04/10 00:51:50;;;;;;;;;;;;;;;;;;364087;27;1227;-82
2024/04/10 00:52:00;;;;;;;;;;;;;;;;;;361954;27;1005;-83
2024/04/10 00:52:11;;;;;;;;;;;;;;;;;;361924;27;930;-83
2024/04/10 00:52:21;;;;;;;;;;;;;;;;;;361942;27;997;-83
2024/04/10 00:52:32;;;;;;;;;;;;;;;;;;364198;27;760;-83
2024/04/10 00:52:42;;;;;;;;;;;;;;;;;;366508;27;1159;-83
2024/04/10 00:52:52;;;;;;;;;;;;;;;;;;368682;26;1314;-83
2024/04/10 00:53:02;;;;;;;;;;;;;;;;;;372373;26;983;-82
2024/04/10 00:53:13;;;;;;;;;;;;;;;;;;373411;26;782;-82
2024/04/10 00:53:24;;;;;;;;;;;;;;;;;;371073;26;1302;-83
2024/04/10 00:53:34;;;;;;;;;;;;;;;;;;366324;27;1212;-83
2024/04/10 00:53:45;;;;;;;;;;;;;;;;;;366305;26;1523;-83
2024/04/10 00:53:56;;;;;;;;;;;;;;;;;;371122;26;1059;-82
2024/04/10 00:54:07;;;;;;;;;;;;;;;;;;371298;26;766;-82
2024/04/10 00:54:17;;;;;;;;;;;;;;;;;;368743;26;1012;-83
2024/04/10 00:54:28;;;;;;;;;;;;;;;;;;366295;26;1654;-83
2024/04/10 00:54:39;;;;;;;;;;;;;;;;;;368293;26;1533;-82
2024/04/10 00:54:49;;;;;;;;;;;;;;;;;;369030;26;932;-82
2024/04/10 00:54:59;;;;;;;;;;;;;;;;;;368755;26;981;-83
2024/04/10 00:55:14;;;;;;;;;;;;;;;;;;366564;27;1349;-82
2024/04/10 00:55:25;;;;;;;;;;;;;;;;;;366633;27;917;-83
2024/04/10 00:55:35;;;;;;;;;;;;;;;;;;366503;27;1099;-83
2024/04/10 00:55:46;;;;;;;;;;;;;;;;;;366501;27;1327;-83
2024/04/10 00:55:56;;;;;;;;;;;;;;;;;;364160;27;849;-82
2024/04/10 00:56:06;;;;;;;;;;;;;;;;;;364183;27;929;-83
2024/04/10 00:56:17;;;;;;;;;;;;;;;;;;365680;27;1474;-83
2024/04/10 00:56:27;;;;;;;;;;;;;;;;;;369020;26;1039;-83
2024/04/10 00:56:38;;;;;;;;;;;;;;;;;;371154;26;991;-82
2024/04/10 00:56:48;;;;;;;;;;;;;;;;;;371259;26;888;-82
2024/04/10 00:56:58;;;;;;;;;;;;;;;;;;372365;26;1636;-82
2024/04/10 00:57:09;;;;;;;;;;;;;;;;;;373678;26;904;-82
2024/04/10 00:57:19;;;;;;;;;;;;;;;;;;368900;26;774;-82
2024/04/10 00:57:29;;;;;;;;;;;;;;;;;;368783;26;996;-82
2024/04/10 00:57:40;;;;;;;;;;;;;;;;;;368874;26;1016;-82
2024/04/10 00:57:50;;;;;;;;;;;;;;;;;;368745;26;921;-82
2024/04/10 00:58:01;;;;;;;;;;;;;;;;;;366500;27;1068;-82
2024/04/10 00:58:11;;;;;;;;;;;;;;;;;;366418;27;1067;-82
2024/04/10 00:58:21;;;;;;;;;;;;;;;;;;368688;26;1259;-83
2024/04/10 00:58:32;;;;;;;;;;;;;;;;;;368229;26;1059;-82
2024/04/10 00:58:43;;;;;;;;;;;;;;;;;;364942;27;980;-82
2024/04/10 00:58:56;;;;;;;;;;;;;;;;;;368744;26;988;-83
2024/04/10 00:59:07;;;;;;;;;;;;;;;;;;369827;26;1317;-83
2024/04/10 00:59:17;;;;;;;;;;;;;;;;;;372919;26;976;-83
2024/04/10 00:59:28;;;;;;;;;;;;;;;;;;371963;26;1530;-83
2024/04/10 00:59:38;;;;;;;;;;;;;;;;;;371354;26;805;-83
2024/04/10 00:59:48;;;;;;;;;;;;;;;;;;373576;26;1177;-82
2024/04/10 00:59:58;;;;;;;;;;;;;;;;;;373688;26;1007;-82
2024/04/10 01:00:09;;;;;;;;;;;;;;;;;;371196;26;1834;-83
2024/04/10 01:00:19;;;;;;;;;;;;;;;;;;371168;26;1242;-83
2024/04/10 01:00:29;;;;;;;;;;;;;;;;;;368756;26;1234;-83
2024/04/10 01:00:40;;;;;;;;;;;;;;;;;;368856;26;930;-83
2024/04/10 01:00:50;;;;;;;;;;;;;;;;;;363962;27;1226;-83
2024/04/10 01:01:01;;;;;;;;;;;;;;;;;;366313;27;1617;-82
2024/04/10 01:01:13;;;;;;;;;;;;;;;;;;370923;26;1333;-83
2024/04/10 01:01:23;;;;;;;;;;;;;;;;;;368810;26;973;-83
2024/04/10 01:01:33;;;;;;;;;;;;;;;;;;368765;26;916;-83
2024/04/10 01:01:43;;;;;;;;;;;;;;;;;;364026;27;1745;-82
2024/04/10 01:01:54;;;;;;;;;;;;;;;;;;363865;27;1286;-82
2024/04/10 01:02:04;;;;;;;;;;;;;;;;;;365997;27;1690;-83
2024/04/10 01:02:15;;;;;;;;;;;;;;;;;;363973;27;1067;-83
2024/04/10 01:02:25;;;;;;;;;;;;;;;;;;364148;27;744;-83
2024/04/10 01:02:35;;;;;;;;;;;;;;;;;;366399;27;1059;-83
2024/04/10 01:02:45;;;;;;;;;;;;;;;;;;368680;26;909;-83
2024/04/10 01:02:56;;;;;;;;;;;;;;;;;;368753;26;908;-83
2024/04/10 01:03:06;;;;;;;;;;;;;;;;;;366375;27;1278;-83
2024/04/10 01:03:16;;;;;;;;;;;;;;;;;;368838;26;838;-83
2024/04/10 01:03:28;;;;;;;;;;;;;;;;;;368670;26;1514;-82
2024/04/10 01:03:38;;;;;;;;;;;;;;;;;;368826;26;1031;-82
2024/04/10 01:03:49;;;;;;;;;;;;;;;;;;368762;26;1007;-82
2024/04/10 01:03:59;;;;;;;;;;;;;;;;;;361614;27;1231;-82
2024/04/10 01:04:10;;;;;;;;;;;;;;;;;;363933;27;1274;-82
2024/04/10 01:04:20;;;;;;;;;;;;;;;;;;364739;27;1560;-82
2024/04/10 01:04:30;;;;;;;;;;;;;;;;;;366463;27;778;-82
2024/04/10 01:04:40;;;;;;;;;;;;;;;;;;366391;27;1071;-82
2024/04/10 01:04:50;;;;;;;;;;;;;;;;;;368781;26;1047;-82
2024/04/10 01:05:01;;;;;;;;;;;;;;;;;;368644;26;1737;-82
2024/04/10 01:05:11;;;;;;;;;;;;;;;;;;367998;26;1900;-82
2024/04/10 01:05:21;;;;;;;;;;;;;;;;;;368870;26;1052;-82
2024/04/10 01:05:31;;;;;;;;;;;;;;;;;;368571;26;1451;-82
2024/04/10 01:05:41;;;;;;;;;;;;;;;;;;371156;26;1167;-82
2024/04/10 01:05:58;;;;;;;;;;;;;;;;;;368612;26;1291;-83
2024/04/10 01:06:09;;;;;;;;;;;;;;;;;;366422;27;1032;-83
2024/04/10 01:06:29;;;;;;;;;;;;;;;;;;366407;27;1040;-83
2024/04/10 01:06:39;;;;;;;;;;;;;;;;;;364112;27;1013;-83
2024/04/10 01:06:49;;;;;;;;;;;;;;;;;;366253;27;1241;-83
2024/04/10 01:06:59;;;;;;;;;;;;;;;;;;366444;27;1028;-83
2024/04/10 01:07:09;;;;;;;;;;;;;;;;;;363946;27;1251;-83
2024/04/10 01:07:20;;;;;;;;;;;;;;;;;;363919;27;1326;-83
2024/04/10 01:07:30;;;;;;;;;;;;;;;;;;367338;26;1752;-83
2024/04/10 01:07:43;;;;;;;;;;;;;;;;;;364746;26;1439;-83
2024/04/10 01:07:53;;;;;;;;;;;;;;;;;;366219;27;1359;-83
2024/04/10 01:08:05;;;;;;;;;;;;;;;;;;367449;26;1699;-83
2024/04/10 01:08:15;;;;;;;;;;;;;;;;;;366261;27;1475;-83
2024/04/10 01:08:27;;;;;;;;;;;;;;;;;;368689;26;1304;-83
2024/04/10 01:08:37;;;;;;;;;;;;;;;;;;368702;26;1040;-83
2024/04/10 01:08:48;;;;;;;;;;;;;;;;;;368849;26;1076;-83
2024/04/10 01:08:58;;;;;;;;;;;;;;;;;;368780;26;981;-83
2024/04/10 01:09:09;;;;;;;;;;;;;;;;;;368841;26;977;-83
2024/04/10 01:09:20;;;;;;;;;;;;;;;;;;368331;26;1470;-83
2024/04/10 01:09:30;;;;;;;;;;;;;;;;;;366381;27;1075;-83
2024/04/10 01:09:40;;;;;;;;;;;;;;;;;;366381;27;819;-83
2024/04/10 01:09:50;;;;;;;;;;;;;;;;;;368689;26;1333;-83
2024/04/10 01:10:01;;;;;;;;;;;;;;;;;;370155;26;1572;-83
2024/04/10 01:10:11;;;;;;;;;;;;;;;;;;371267;26;791;-83
2024/04/10 01:10:21;;;;;;;;;;;;;;;;;;371165;26;991;-83
2024/04/10 01:10:31;;;;;;;;;;;;;;;;;;371075;26;861;-83
2024/04/10 01:10:42;;;;;;;;;;;;;;;;;;370936;26;1015;-83
2024/04/10 01:10:52;;;;;;;;;;;;;;;;;;368375;26;1190;-83
2024/04/10 01:11:04;;;;;;;;;;;;;;;;;;368818;26;775;-83
2024/04/10 01:11:14;;;;;;;;;;;;;;;;;;368734;26;992;-83
2024/04/10 01:11:25;;;;;;;;;;;;;;;;;;368833;26;1083;-83
2024/04/10 01:11:35;;;;;;;;;;;;;;;;;;368820;26;1052;-83
2024/04/10 01:11:45;;;;;;;;;;;;;;;;;;368841;26;959;-83
2024/04/10 01:11:56;;;;;;;;;;;;;;;;;;368749;26;1174;-83
2024/04/10 01:12:06;;;;;;;;;;;;;;;;;;368680;26;952;-83
2024/04/10 01:12:16;;;;;;;;;;;;;;;;;;368517;26;1878;-83
2024/04/10 01:12:28;;;;;;;;;;;;;;;;;;367985;26;1509;-82
2024/04/10 01:12:39;;;;;;;;;;;;;;;;;;365917;27;1344;-83
2024/04/10 01:12:50;;;;;;;;;;;;;;;;;;366386;27;814;-83
2024/04/10 01:13:00;;;;;;;;;;;;;;;;;;366395;27;1044;-82
2024/04/10 01:13:11;;;;;;;;;;;;;;;;;;366361;27;1293;-82
2024/04/10 01:13:21;;;;;;;;;;;;;;;;;;366437;27;1000;-82
2024/04/10 01:13:32;;;;;;;;;;;;;;;;;;364011;27;1360;-82
2024/04/10 01:13:42;;;;;;;;;;;;;;;;;;363952;27;1286;-82
2024/04/10 01:13:52;;;;;;;;;;;;;;;;;;365236;27;1044;-83
2024/04/10 01:14:02;;;;;;;;;;;;;;;;;;366485;27;914;-83
2024/04/10 01:14:13;;;;;;;;;;;;;;;;;;366204;27;800;-82
2024/04/10 01:14:23;;;;;;;;;;;;;;;;;;366312;27;1008;-82
2024/04/10 01:14:33;;;;;;;;;;;;;;;;;;368624;26;1202;-82
2024/04/10 01:14:45;;;;;;;;;;;;;;;;;;368785;26;1012;-82
2024/04/10 01:14:55;;;;;;;;;;;;;;;;;;368817;26;1036;-82
2024/04/10 01:15:06;;;;;;;;;;;;;;;;;;368867;26;833;-82
2024/04/10 01:15:17;;;;;;;;;;;;;;;;;;368864;26;837;-82
2024/04/10 01:15:27;;;;;;;;;;;;;;;;;;368903;26;809;-82
2024/04/10 01:15:37;;;;;;;;;;;;;;;;;;365895;27;1638;-82
2024/04/10 01:15:47;;;;;;;;;;;;;;;;;;366123;27;1001;-82
2024/04/10 01:15:57;;;;;;;;;;;;;;;;;;366433;27;1036;-82
2024/04/10 01:16:08;;;;;;;;;;;;;;;;;;366409;27;934;-82